createdAt,value
2022-09-29T00:00:44.304Z,8.30
2022-09-29T00:03:11.445Z,8.20
2022-09-29T00:05:38.395Z,7.63
2022-09-29T00:08:05.407Z,8.00
2022-09-29T00:10:32.508Z,6.07
2022-09-29T00:12:59.461Z,5.78
2022-09-29T00:15:26.435Z,8.18
2022-09-29T00:20:40.669Z,7.07
2022-09-29T00:23:07.671Z,7.45
2022-09-29T00:25:35.069Z,7.68
2022-09-29T00:28:02.221Z,6.70
2022-09-29T00:30:29.263Z,5.28
2022-09-29T00:32:56.187Z,6.43
2022-09-29T00:35:23.226Z,6.40
2022-09-29T00:37:50.233Z,5.40
2022-09-29T00:40:17.669Z,6.20
2022-09-29T00:42:44.605Z,6.25
2022-09-29T00:45:16.418Z,5.47
2022-09-29T00:47:47.582Z,5.75
2022-09-29T00:50:19.879Z,5.93
2022-09-29T00:53:01.365Z,7.03
2022-09-29T00:55:31.294Z,7.03
2022-09-29T00:58:07.580Z,5.57
2022-09-29T01:00:34.857Z,6.30
2022-09-29T01:03:15.435Z,4.95
2022-09-29T01:06:10.326Z,8.07
2022-09-29T01:08:43.058Z,6.63
2022-09-29T01:11:12.438Z,5.80
2022-09-29T01:13:41.664Z,7.15
2022-09-29T01:16:08.755Z,7.32
2022-09-29T01:18:36.172Z,8.00
2022-09-29T01:21:34.074Z,7.28
2022-09-29T01:24:16.352Z,5.88
2022-09-29T01:27:04.911Z,6.45
2022-09-29T01:32:17.075Z,6.60
2022-09-29T01:35:08.553Z,6.70
2022-09-29T01:38:03.014Z,7.97
2022-09-29T01:40:42.937Z,7.70
2022-09-29T01:43:31.356Z,7.50
2022-09-29T01:46:16.645Z,8.25
2022-09-29T01:48:49.701Z,6.93
2022-09-29T01:51:22.310Z,8.07
2022-09-29T01:53:52.540Z,9.43
2022-09-29T01:56:25.813Z,8.32
2022-09-29T01:58:58.404Z,8.40
2022-09-29T02:01:31.058Z,8.65
2022-09-29T02:04:02.335Z,9.82
2022-09-29T02:06:38.043Z,8.35
2022-09-29T02:09:12.908Z,8.82
2022-09-29T02:11:42.194Z,8.23
2022-09-29T02:14:21.260Z,9.25
2022-09-29T02:16:52.257Z,9.75
2022-09-29T02:19:24.645Z,8.70
2022-09-29T02:21:54.417Z,9.93
2022-09-29T02:24:23.330Z,9.57
2022-09-29T02:26:51.545Z,9.85
2022-09-29T02:29:19.521Z,8.98
2022-09-29T02:31:48.062Z,8.77
2022-09-29T02:34:19.112Z,11.15
2022-09-29T02:37:33.615Z,8.57
2022-09-29T02:43:07.456Z,9.23
2022-09-29T02:46:13.318Z,8.82
2022-09-29T02:48:56.199Z,10.32
2022-09-29T02:51:25.988Z,9.73
2022-09-29T02:53:55.903Z,9.52
2022-09-29T02:56:56.234Z,9.70
2022-09-29T02:59:46.107Z,9.32
2022-09-29T03:02:16.365Z,9.27
2022-09-29T03:04:43.249Z,10.20
2022-09-29T03:07:10.086Z,11.05
2022-09-29T03:09:36.927Z,10.98
2022-09-29T03:12:06.814Z,10.55
2022-09-29T03:14:36.227Z,9.82
2022-09-29T03:17:03.899Z,11.52
2022-09-29T03:19:30.833Z,10.02
2022-09-29T03:21:57.849Z,9.88
2022-09-29T03:24:24.843Z,9.73
2022-09-29T03:26:51.880Z,9.40
2022-09-29T03:29:18.960Z,9.45
2022-09-29T03:31:46.171Z,8.93
2022-09-29T03:34:13.338Z,9.23
2022-09-29T03:36:41.552Z,8.40
2022-09-29T03:39:08.947Z,8.57
2022-09-29T03:41:35.862Z,8.63
2022-09-29T03:44:03.003Z,8.57
2022-09-29T03:46:30.023Z,8.02
2022-09-29T03:48:56.904Z,9.88
2022-09-29T03:51:23.827Z,9.13
2022-09-29T03:53:51.103Z,8.55
2022-09-29T03:56:18.280Z,8.38
2022-09-29T03:58:45.295Z,10.18
2022-09-29T04:01:12.493Z,8.07
2022-09-29T04:03:39.398Z,8.45
2022-09-29T04:06:06.606Z,9.20
2022-09-29T04:08:36.475Z,9.02
2022-09-29T04:11:03.916Z,10.52
2022-09-29T04:13:31.187Z,9.07
2022-09-29T04:16:03.794Z,8.18
2022-09-29T04:18:31.580Z,8.85
2022-09-29T04:21:00.632Z,10.25
2022-09-29T04:25:57.825Z,8.48
2022-09-29T04:28:25.341Z,8.75
2022-09-29T04:30:52.414Z,9.55
2022-09-29T04:33:19.420Z,8.65
2022-09-29T04:35:46.935Z,8.80
2022-09-29T04:38:13.821Z,9.25
2022-09-29T04:40:41.193Z,9.10
2022-09-29T04:43:08.523Z,8.00
2022-09-29T04:45:35.458Z,9.60
2022-09-29T04:48:02.509Z,9.05
2022-09-29T04:50:29.935Z,9.15
2022-09-29T04:52:57.267Z,9.73
2022-09-29T04:55:24.248Z,9.02
2022-09-29T04:57:51.189Z,9.15
2022-09-29T05:00:18.793Z,8.52
2022-09-29T05:02:49.663Z,9.27
2022-09-29T05:05:17.032Z,9.60
2022-09-29T05:07:44.610Z,9.60
2022-09-29T05:10:11.844Z,9.60
2022-09-29T05:12:38.970Z,9.35
2022-09-29T05:15:06.978Z,8.98
2022-09-29T05:17:34.443Z,8.80
2022-09-29T05:20:01.781Z,8.55
2022-09-29T05:22:29.108Z,7.65
2022-09-29T05:24:56.328Z,9.35
2022-09-29T05:27:23.328Z,7.78
2022-09-29T05:29:50.469Z,9.20
2022-09-29T05:32:17.770Z,9.27
2022-09-29T05:34:45.040Z,8.95
2022-09-29T05:37:13.313Z,9.27
2022-09-29T05:39:40.404Z,9.00
2022-09-29T05:42:12.126Z,13.27
2022-09-29T05:44:39.448Z,12.10
2022-09-29T05:47:06.424Z,13.93
2022-09-29T05:49:33.423Z,11.52
2022-09-29T05:52:00.714Z,10.95
2022-09-29T05:54:27.609Z,12.10
2022-09-29T05:56:54.946Z,11.30
2022-09-29T05:59:22.077Z,10.82
2022-09-29T06:01:49.568Z,10.20
2022-09-29T06:04:17.585Z,10.75
2022-09-29T06:06:44.602Z,10.68
2022-09-29T06:09:11.641Z,10.88
2022-09-29T06:11:40.323Z,9.52
2022-09-29T06:14:07.527Z,10.45
2022-09-29T06:16:34.702Z,10.15
2022-09-29T06:19:01.749Z,10.30
2022-09-29T06:21:34.656Z,9.77
2022-09-29T06:24:02.016Z,8.80
2022-09-29T06:26:29.537Z,9.63
2022-09-29T06:28:57.401Z,11.00
2022-09-29T06:31:27.001Z,8.43
2022-09-29T06:33:57.500Z,8.27
2022-09-29T06:36:57.135Z,8.00
2022-09-29T06:39:24.244Z,8.63
2022-09-29T06:41:55.203Z,8.57
2022-09-29T06:44:31.181Z,9.55
2022-09-29T06:46:58.823Z,9.23
2022-09-29T06:49:26.068Z,8.70
2022-09-29T06:51:53.103Z,8.57
2022-09-29T06:54:25.169Z,9.13
2022-09-29T06:56:53.514Z,8.40
2022-09-29T06:59:20.567Z,8.07
2022-09-29T07:01:51.104Z,9.15
2022-09-29T07:04:19.717Z,9.70
2022-09-29T07:06:47.093Z,9.30
2022-09-29T07:09:17.843Z,8.18
2022-09-29T07:11:48.449Z,9.35
2022-09-29T07:14:19.633Z,10.02
2022-09-29T07:16:48.511Z,8.60
2022-09-29T07:19:16.957Z,10.27
2022-09-29T07:21:44.921Z,9.45
2022-09-29T07:24:11.957Z,9.60
2022-09-29T07:26:39.432Z,9.70
2022-09-29T07:29:06.403Z,8.50
2022-09-29T07:31:46.260Z,10.23
2022-09-29T07:34:17.600Z,10.80
2022-09-29T07:36:44.805Z,10.55
2022-09-29T07:39:11.734Z,8.68
2022-09-29T07:41:38.603Z,9.18
2022-09-29T07:44:05.499Z,11.15
2022-09-29T07:46:32.963Z,10.95
2022-09-29T07:48:59.941Z,18.42
2022-09-29T07:51:26.894Z,10.80
2022-09-29T07:53:53.881Z,12.13
2022-09-29T07:56:22.943Z,10.77
2022-09-29T07:58:50.677Z,17.20
2022-09-29T08:01:19.167Z,16.00
2022-09-29T08:03:54.512Z,24.83
2022-09-29T08:06:23.632Z,11.55
2022-09-29T08:09:02.833Z,18.42
2022-09-29T08:11:32.781Z,11.60
2022-09-29T08:14:00.991Z,27.13
2022-09-29T08:16:28.406Z,13.85
2022-09-29T08:18:55.418Z,17.40
2022-09-29T08:21:22.872Z,17.98
2022-09-29T08:23:49.896Z,15.68
2022-09-29T08:26:22.073Z,16.23
2022-09-29T08:29:05.396Z,19.60
2022-09-29T08:31:33.950Z,15.05
2022-09-29T08:34:00.898Z,14.07
2022-09-29T08:36:27.895Z,18.20
2022-09-29T08:38:57.277Z,15.88
2022-09-29T08:41:39.147Z,15.75
2022-09-29T08:44:39.214Z,16.23
2022-09-29T08:47:22.052Z,18.55
2022-09-29T08:49:59.479Z,20.83
2022-09-29T08:52:46.379Z,16.50
2022-09-29T08:55:21.438Z,16.00
2022-09-29T08:57:54.938Z,18.77
2022-09-29T09:00:38.900Z,19.23
2022-09-29T09:03:37.946Z,19.20
2022-09-29T09:06:11.659Z,17.42
2022-09-29T09:08:53.612Z,20.65
2022-09-29T09:14:09.208Z,18.60
2022-09-29T09:16:54.744Z,20.60
2022-09-29T09:19:38.969Z,23.50
2022-09-29T09:22:23.838Z,21.85
2022-09-29T09:24:59.897Z,19.92
2022-09-29T09:27:33.598Z,21.58
2022-09-29T09:30:24.774Z,21.83
2022-09-29T09:32:57.773Z,24.67
2022-09-29T09:35:56.279Z,28.63
2022-09-29T09:38:38.562Z,21.13
2022-09-29T09:41:05.777Z,23.17
2022-09-29T09:43:44.300Z,23.33
2022-09-29T09:46:34.698Z,21.70
2022-09-29T09:49:23.213Z,24.02
2022-09-29T09:52:18.193Z,23.25
2022-09-29T09:54:49.608Z,24.20
2022-09-29T09:57:38.405Z,24.08
2022-09-29T10:00:13.349Z,23.58
2022-09-29T10:02:48.548Z,25.63
2022-09-29T10:05:21.941Z,24.33
2022-09-29T10:07:49.563Z,27.65
2022-09-29T10:10:20.261Z,25.98
2022-09-29T10:12:49.135Z,25.52
2022-09-29T10:15:22.224Z,24.63
2022-09-29T10:17:58.784Z,24.05
2022-09-29T10:20:34.076Z,24.02
2022-09-29T10:23:29.581Z,26.60
2022-09-29T10:26:05.331Z,25.63
2022-09-29T10:31:27.141Z,24.48
2022-09-29T10:34:01.393Z,25.45
2022-09-29T10:36:46.627Z,24.58
2022-09-29T10:39:36.109Z,25.33
2022-09-29T10:42:04.809Z,23.95
2022-09-29T10:44:35.806Z,20.58
2022-09-29T10:47:07.980Z,22.55
2022-09-29T10:49:35.032Z,23.52
2022-09-29T10:52:28.045Z,24.08
2022-09-29T10:54:59.788Z,22.25
2022-09-29T10:57:29.266Z,20.80
2022-09-29T10:59:58.060Z,18.40
2022-09-29T11:02:28.224Z,15.98
2022-09-29T11:04:57.796Z,15.70
2022-09-29T11:07:25.378Z,17.73
2022-09-29T11:09:55.705Z,16.88
2022-09-29T11:12:39.162Z,17.42
2022-09-29T11:15:41.881Z,16.98
2022-09-29T11:18:38.740Z,14.02
2022-09-29T11:21:21.519Z,15.77
2022-09-29T11:24:11.767Z,15.20
2022-09-29T11:27:07.836Z,15.80
2022-09-29T11:30:08.446Z,11.10
2022-09-29T11:32:53.467Z,13.55
2022-09-29T11:35:29.656Z,13.85
2022-09-29T11:38:06.427Z,11.13
2022-09-29T11:41:02.299Z,11.85
2022-09-29T11:43:50.575Z,11.05
2022-09-29T11:46:35.645Z,11.45
2022-09-29T11:49:28.283Z,11.73
2022-09-29T11:52:18.657Z,10.27
2022-09-29T11:55:05.515Z,10.52
2022-09-29T11:57:53.937Z,11.20
2022-09-29T12:00:24.301Z,10.65
2022-09-29T12:03:18.633Z,9.23
2022-09-29T12:06:09.444Z,10.82
2022-09-29T12:08:56.517Z,9.00
2022-09-29T12:11:54.776Z,10.05
2022-09-29T12:14:40.617Z,9.98
2022-09-29T12:17:15.838Z,8.95
2022-09-29T12:19:45.094Z,9.10
2022-09-29T12:22:19.411Z,8.52
2022-09-29T12:24:52.618Z,10.52
2022-09-29T12:27:26.151Z,9.63
2022-09-29T12:30:13.990Z,9.55
2022-09-29T12:33:06.384Z,8.98
2022-09-29T12:35:43.143Z,7.85
2022-09-29T12:38:25.601Z,8.77
2022-09-29T12:40:52.460Z,10.32
2022-09-29T12:43:19.300Z,8.23
2022-09-29T12:46:15.320Z,8.95
2022-09-29T12:49:13.802Z,8.95
2022-09-29T12:51:49.497Z,9.85
2022-09-29T12:54:28.652Z,10.25
2022-09-29T12:57:06.266Z,8.25
2022-09-29T12:59:57.016Z,9.35
2022-09-29T13:02:29.033Z,7.25
2022-09-29T13:05:30.894Z,9.43
2022-09-29T13:08:19.415Z,7.95
2022-09-29T13:11:17.551Z,10.15
2022-09-29T13:13:53.170Z,10.10
2022-09-29T13:19:29.652Z,8.18
2022-09-29T13:22:31.112Z,8.95
2022-09-29T13:25:21.310Z,8.82
2022-09-29T13:27:50.990Z,8.52
2022-09-29T13:30:24.611Z,7.90
2022-09-29T13:33:11.202Z,8.70
2022-09-29T13:35:44.731Z,8.95
2022-09-29T13:38:28.715Z,8.00
2022-09-29T13:41:37.346Z,8.35
2022-09-29T13:44:17.858Z,7.88
2022-09-29T13:46:45.246Z,7.70
2022-09-29T13:49:15.604Z,8.23
2022-09-29T13:52:10.106Z,7.63
2022-09-29T13:54:39.291Z,8.35
2022-09-29T14:00:15.317Z,7.55
2022-09-29T14:03:04.508Z,7.40
2022-09-29T14:05:31.293Z,8.27
2022-09-29T14:07:58.724Z,8.57
2022-09-29T14:10:44.226Z,6.10
2022-09-29T14:13:11.144Z,8.77
2022-09-29T14:16:06.114Z,7.70
2022-09-29T14:21:12.524Z,6.82
2022-09-29T14:26:43.044Z,7.65
2022-09-29T14:29:26.069Z,6.45
2022-09-29T14:31:56.269Z,5.32
2022-09-29T14:34:27.028Z,4.57
2022-09-29T14:36:55.806Z,5.57
2022-09-29T14:39:35.424Z,4.38
2022-09-29T14:42:02.382Z,4.85
2022-09-29T14:44:55.147Z,8.93
2022-09-29T14:47:53.072Z,5.32
2022-09-29T14:50:41.617Z,5.38
2022-09-29T14:53:21.812Z,4.38
2022-09-29T14:56:10.951Z,6.35
2022-09-29T14:59:00.180Z,5.38
2022-09-29T15:01:32.007Z,5.13
2022-09-29T15:04:14.605Z,7.38
2022-09-29T15:06:52.266Z,8.10
2022-09-29T15:09:24.872Z,6.35
2022-09-29T15:12:04.395Z,5.57
2022-09-29T15:14:41.526Z,6.63
2022-09-29T15:17:18.823Z,6.82
2022-09-29T15:20:23.419Z,5.35
2022-09-29T15:23:28.737Z,6.28
2022-09-29T15:28:39.435Z,5.70
2022-09-29T15:33:45.610Z,4.30
2022-09-29T15:36:24.915Z,4.63
2022-09-29T15:39:04.252Z,5.88
2022-09-29T15:41:33.437Z,7.35
2022-09-29T15:46:41.430Z,5.72
2022-09-29T15:49:21.301Z,6.07
2022-09-29T15:51:59.257Z,5.50
2022-09-29T15:54:29.768Z,6.00
2022-09-29T15:57:15.045Z,4.05
2022-09-29T15:59:44.991Z,3.67
2022-09-29T16:02:32.399Z,4.15
2022-09-29T16:05:04.586Z,6.50
2022-09-29T16:07:38.409Z,5.82
2022-09-29T16:10:26.216Z,6.45
2022-09-29T16:12:58.861Z,5.15
2022-09-29T16:15:34.668Z,5.40
2022-09-29T16:18:08.033Z,3.92
2022-09-29T16:20:35.673Z,6.13
2022-09-29T16:23:25.746Z,5.47
2022-09-29T16:26:08.046Z,5.50
2022-09-29T16:28:37.405Z,7.05
2022-09-29T16:31:24.398Z,5.38
2022-09-29T16:33:56.759Z,4.25
2022-09-29T16:36:34.479Z,4.80
2022-09-29T16:39:02.072Z,4.13
2022-09-29T16:41:35.553Z,5.45
2022-09-29T16:44:12.841Z,4.70
2022-09-29T16:47:03.043Z,5.90
2022-09-29T16:49:38.556Z,7.18
2022-09-29T16:52:14.389Z,39.67
2022-09-29T16:54:44.459Z,8.00
2022-09-29T16:57:30.454Z,4.75
2022-09-29T17:00:00.026Z,6.60
2022-09-29T17:02:28.368Z,5.15
2022-09-29T17:04:56.470Z,5.10
2022-09-29T17:07:25.602Z,6.20
2022-09-29T17:09:57.950Z,4.93
2022-09-29T17:12:27.670Z,4.68
2022-09-29T17:14:54.632Z,5.00
2022-09-29T17:17:27.210Z,5.30
2022-09-29T17:19:58.909Z,5.30
2022-09-29T17:22:34.562Z,6.47
2022-09-29T17:27:47.781Z,5.28
2022-09-29T17:30:22.602Z,5.18
2022-09-29T17:32:52.773Z,6.55
2022-09-29T17:35:27.666Z,6.78
2022-09-29T17:37:56.240Z,4.65
2022-09-29T17:40:48.486Z,5.90
2022-09-29T17:43:17.627Z,6.45
2022-09-29T17:48:13.715Z,7.00
2022-09-29T17:50:49.977Z,5.70
2022-09-29T17:53:18.549Z,5.93
2022-09-29T17:55:50.942Z,5.93
2022-09-29T17:58:19.453Z,5.60
2022-09-29T18:00:51.797Z,6.00
2022-09-29T18:03:21.213Z,7.93
2022-09-29T18:05:57.598Z,5.13
2022-09-29T18:08:27.018Z,6.80
2022-09-29T18:10:59.536Z,6.28
2022-09-29T18:13:28.090Z,5.88
2022-09-29T18:15:56.057Z,7.30
2022-09-29T18:18:23.585Z,8.32
2022-09-29T18:20:51.124Z,7.32
2022-09-29T18:23:19.468Z,6.45
2022-09-29T18:25:49.022Z,7.93
2022-09-29T18:28:17.954Z,9.45
2022-09-29T18:30:48.774Z,9.23
2022-09-29T18:33:17.537Z,12.18
2022-09-29T18:35:50.685Z,10.05
2022-09-29T18:38:17.583Z,9.68
2022-09-29T18:40:44.561Z,11.23
2022-09-29T18:43:13.183Z,10.15
2022-09-29T18:45:44.849Z,9.52
2022-09-29T18:48:14.318Z,9.25
2022-09-29T18:50:47.420Z,9.57
2022-09-29T18:53:17.089Z,12.90
2022-09-29T18:55:44.315Z,9.65
2022-09-29T18:58:16.671Z,8.95
2022-09-29T19:00:46.340Z,9.75
2022-09-29T19:03:13.386Z,9.50
2022-09-29T19:05:42.496Z,9.05
2022-09-29T19:08:12.083Z,8.40
2022-09-29T19:10:41.342Z,10.90
2022-09-29T19:13:15.489Z,8.82
2022-09-29T19:15:44.273Z,10.05
2022-09-29T19:18:23.701Z,10.40
2022-09-29T19:20:52.991Z,9.93
2022-09-29T19:25:49.232Z,13.52
2022-09-29T19:28:17.465Z,10.77
2022-09-29T19:30:44.914Z,9.93
2022-09-29T19:33:19.621Z,9.15
2022-09-29T19:35:54.281Z,9.48
2022-09-29T19:38:22.148Z,10.10
2022-09-29T19:40:49.458Z,8.55
2022-09-29T19:43:16.559Z,9.95
2022-09-29T19:45:44.743Z,9.00
2022-09-29T19:48:17.025Z,7.93
2022-09-29T19:51:05.912Z,8.88
2022-09-29T19:53:35.322Z,8.82
2022-09-29T19:56:07.347Z,8.15
2022-09-29T19:58:35.000Z,8.38
2022-09-29T20:01:01.845Z,7.78
2022-09-29T20:03:29.827Z,8.23
2022-09-29T20:06:06.480Z,9.20
2022-09-29T20:08:34.109Z,7.60
2022-09-29T20:11:12.968Z,7.30
2022-09-29T20:13:40.824Z,7.35
2022-09-29T20:16:08.334Z,6.90
2022-09-29T20:18:37.197Z,7.53
2022-09-29T20:21:12.630Z,7.63
2022-09-29T20:23:39.793Z,7.50
2022-09-29T20:26:09.152Z,7.38
2022-09-29T20:28:36.871Z,6.55
2022-09-29T20:31:05.237Z,7.30
2022-09-29T20:33:36.280Z,6.43
2022-09-29T20:36:04.782Z,6.82
2022-09-29T20:38:39.331Z,7.80
2022-09-29T20:41:07.384Z,6.03
2022-09-29T20:43:37.376Z,7.55
2022-09-29T20:46:07.323Z,5.90
2022-09-29T20:48:35.805Z,6.65
2022-09-29T20:51:04.500Z,6.70
2022-09-29T20:53:34.053Z,5.82
2022-09-29T20:56:16.217Z,5.28
2022-09-29T21:01:17.913Z,5.00
2022-09-29T21:03:59.286Z,5.25
2022-09-29T21:06:28.718Z,5.88
2022-09-29T21:08:55.992Z,5.57
2022-09-29T21:11:22.833Z,5.80
2022-09-29T21:13:52.020Z,7.18
2022-09-29T21:18:46.467Z,5.78
2022-09-29T21:21:13.430Z,5.30
2022-09-29T21:23:42.416Z,4.45
2022-09-29T21:26:18.222Z,6.90
2022-09-29T21:28:54.215Z,4.55
2022-09-29T21:31:27.008Z,4.55
2022-09-29T21:33:59.435Z,4.03
2022-09-29T21:36:28.989Z,4.20
2022-09-29T21:39:02.876Z,4.25
2022-09-29T21:41:37.896Z,4.53
2022-09-29T21:44:11.422Z,1.80
2022-09-29T21:46:39.329Z,3.38
2022-09-29T21:49:08.432Z,1.40
2022-09-29T21:51:44.512Z,2.53
2022-09-29T21:54:13.834Z,5.28
2022-09-29T21:56:42.970Z,1.35
2022-09-29T21:59:14.977Z,1.45
2022-09-29T22:01:42.671Z,1.85
2022-09-29T22:04:10.717Z,1.15
2022-09-29T22:06:38.380Z,3.95
2022-09-29T22:09:07.768Z,1.52
2022-09-29T22:11:38.942Z,1.20
2022-09-29T22:14:06.300Z,1.45
2022-09-29T22:16:35.362Z,2.50
2022-09-29T22:21:52.662Z,0.60
2022-09-29T22:24:19.686Z,0.60
2022-09-29T22:26:46.680Z,0.50
2022-09-29T22:29:13.621Z,1.60
2022-09-29T22:31:40.993Z,0.95
2022-09-29T22:34:11.314Z,1.52
2022-09-29T22:36:39.522Z,0.50
2022-09-29T22:39:06.860Z,0.52
2022-09-29T22:41:36.647Z,0.47
2022-09-29T22:44:04.055Z,1.55
2022-09-29T22:46:32.229Z,1.00
2022-09-29T22:48:59.863Z,1.02
2022-09-29T22:51:26.751Z,2.00
2022-09-29T22:53:53.746Z,1.58
2022-09-29T22:56:28.112Z,0.40
2022-09-29T22:58:56.538Z,0.80
2022-09-29T23:01:24.097Z,0.30
2022-09-29T23:03:51.215Z,1.38
2022-09-29T23:06:18.359Z,0.57
2022-09-29T23:08:45.420Z,0.50
2022-09-29T23:11:17.849Z,0.63
2022-09-29T23:13:46.168Z,0.25
2022-09-29T23:16:14.909Z,0.60
2022-09-29T23:18:46.599Z,0.68
2022-09-29T23:21:19.239Z,1.23
2022-09-29T23:23:48.083Z,0.28
2022-09-29T23:26:15.589Z,1.85
2022-09-29T23:28:42.651Z,0.95
2022-09-29T23:31:11.429Z,0.20
2022-09-29T23:33:38.525Z,0.57
2022-09-29T23:36:09.623Z,0.30
2022-09-29T23:38:56.847Z,0.43
2022-09-29T23:41:26.956Z,1.55
2022-09-29T23:43:57.851Z,1.20
2022-09-29T23:46:26.240Z,2.65
2022-09-29T23:48:53.233Z,0.70
2022-09-29T23:51:20.763Z,2.08
2022-09-29T23:53:49.160Z,0.95
2022-09-29T23:56:16.690Z,0.43
2022-09-29T23:58:44.268Z,0.77
